createdAt,value
2017-10-14T00:06:57.000Z,20.6
2017-10-14T00:16:57.000Z,20.61
2017-10-14T00:26:57.000Z,20.57
2017-10-14T00:36:57.000Z,20.56
2017-10-14T00:46:57.000Z,20.57
2017-10-14T00:56:57.000Z,20.55
2017-10-14T01:06:57.000Z,20.53
2017-10-14T01:16:57.000Z,20.51
2017-10-14T01:26:57.000Z,20.5
2017-10-14T01:37:00.000Z,20.49
2017-10-14T01:46:58.000Z,20.49
2017-10-14T01:56:58.000Z,20.47
2017-10-14T02:06:58.000Z,20.47
2017-10-14T02:16:58.000Z,20.44
2017-10-14T02:26:58.000Z,20.45
2017-10-14T02:36:58.000Z,20.44
2017-10-14T02:46:58.000Z,20.42
2017-10-14T02:56:59.000Z,20.42
2017-10-14T03:06:58.000Z,20.4
2017-10-14T03:16:58.000Z,20.39
2017-10-14T03:26:58.000Z,20.37
2017-10-14T03:36:58.000Z,20.36
2017-10-14T03:46:58.000Z,20.35
2017-10-14T03:56:58.000Z,20.33
2017-10-14T04:06:58.000Z,20.33
2017-10-14T04:16:58.000Z,20.32
2017-10-14T04:26:58.000Z,20.31
2017-10-14T04:36:58.000Z,20.3
2017-10-14T04:46:58.000Z,20.28
2017-10-14T04:56:58.000Z,20.27
2017-10-14T05:06:58.000Z,20.27
2017-10-14T05:16:58.000Z,20.24
2017-10-14T05:26:58.000Z,20.22
2017-10-14T05:36:58.000Z,20.22
2017-10-14T05:46:58.000Z,20.21
2017-10-14T05:56:58.000Z,20.2
2017-10-14T06:06:58.000Z,20.19
2017-10-14T06:16:58.000Z,20.19
2017-10-14T06:26:58.000Z,20.2
2017-10-14T06:36:58.000Z,20.2
2017-10-14T06:46:58.000Z,20.2
2017-10-14T06:56:58.000Z,20.21
2017-10-14T07:06:58.000Z,20.24
2017-10-14T07:16:58.000Z,20.25
2017-10-14T07:26:58.000Z,20.27
2017-10-14T07:36:58.000Z,20.31
2017-10-14T07:46:58.000Z,20.35
2017-10-14T07:56:58.000Z,20.37
2017-10-14T08:06:58.000Z,20.41
2017-10-14T08:16:58.000Z,20.47
2017-10-14T08:26:58.000Z,20.53
2017-10-14T08:36:58.000Z,20.63
2017-10-14T08:46:58.000Z,20.73
2017-10-14T08:56:58.000Z,20.81
2017-10-14T09:06:58.000Z,20.92
2017-10-14T09:16:58.000Z,21.02
2017-10-14T09:26:58.000Z,21.15
2017-10-14T09:46:58.000Z,21.52
2017-10-14T09:56:58.000Z,21.73
2017-10-14T10:06:58.000Z,21.93
2017-10-14T10:16:58.000Z,22.15
2017-10-14T10:26:59.000Z,22.31
2017-10-14T10:36:59.000Z,22.45
2017-10-14T10:46:59.000Z,22.7
2017-10-14T10:56:59.000Z,22.63
2017-10-14T11:06:59.000Z,22.67
2017-10-14T11:16:59.000Z,22.69
2017-10-14T11:27:00.000Z,22.67
2017-10-14T11:36:59.000Z,22.56
2017-10-14T11:46:59.000Z,22.55
2017-10-14T11:56:59.000Z,22.53
2017-10-14T12:06:59.000Z,22.54
2017-10-14T12:16:59.000Z,22.5
2017-10-14T12:26:59.000Z,22.45
2017-10-14T12:36:59.000Z,22.47
2017-10-14T12:46:59.000Z,22.43
2017-10-14T12:56:59.000Z,22.4
2017-10-14T13:06:59.000Z,22.38
2017-10-14T13:16:59.000Z,22.33
2017-10-14T13:26:59.000Z,22.34
2017-10-14T13:37:01.000Z,22.36
2017-10-14T13:46:59.000Z,22.44
2017-10-14T13:56:59.000Z,22.38
2017-10-14T14:06:59.000Z,22.38
2017-10-14T14:16:59.000Z,22.4
2017-10-14T14:26:59.000Z,22.31
2017-10-14T14:37:01.000Z,22.34
2017-10-14T14:46:59.000Z,22.35
2017-10-14T14:56:59.000Z,22.44
2017-10-14T15:06:59.000Z,22.41
2017-10-14T15:16:59.000Z,22.42
2017-10-14T15:26:59.000Z,22.32
2017-10-14T15:36:59.000Z,22.32
2017-10-14T15:46:59.000Z,22.35
2017-10-14T15:56:59.000Z,22.33
2017-10-14T16:06:59.000Z,22.3
2017-10-14T16:16:59.000Z,22.23
2017-10-14T16:26:59.000Z,22.22
2017-10-14T16:36:59.000Z,22.22
2017-10-14T16:46:59.000Z,22.21
2017-10-14T16:56:59.000Z,22.19
2017-10-14T17:06:59.000Z,22.2
2017-10-14T17:16:59.000Z,22.18
2017-10-14T17:26:59.000Z,22.12
2017-10-14T17:36:59.000Z,22.16
2017-10-14T17:46:59.000Z,22.17
2017-10-14T17:56:59.000Z,22.19
2017-10-14T18:06:59.000Z,22.21
2017-10-14T18:17:01.000Z,22.23
2017-10-14T18:26:59.000Z,22.24
2017-10-14T18:36:59.000Z,22.28
2017-10-14T18:47:00.000Z,22.36
2017-10-14T18:57:00.000Z,22.45
2017-10-14T19:07:00.000Z,22.52
2017-10-14T19:27:00.000Z,22.56
2017-10-14T19:37:00.000Z,22.53
2017-10-14T19:47:00.000Z,22.26
2017-10-14T19:57:00.000Z,22.21
2017-10-14T20:07:00.000Z,22.1
2017-10-14T20:17:00.000Z,22.06
2017-10-14T20:27:00.000Z,22.01
2017-10-14T20:37:00.000Z,22
2017-10-14T20:47:01.000Z,21.95
2017-10-14T20:57:00.000Z,21.95
2017-10-14T21:07:00.000Z,21.96
2017-10-14T21:17:00.000Z,21.8
2017-10-14T21:27:00.000Z,21.77
2017-10-14T21:37:00.000Z,21.73
2017-10-14T21:47:00.000Z,21.7
2017-10-14T21:57:00.000Z,21.68
2017-10-14T22:07:00.000Z,21.57
2017-10-14T22:17:00.000Z,21.5
2017-10-14T22:27:00.000Z,21.53
2017-10-14T22:37:00.000Z,21.52
2017-10-14T22:47:00.000Z,21.47
2017-10-14T22:57:00.000Z,21.68
2017-10-14T23:07:00.000Z,21.84
2017-10-14T23:17:00.000Z,21.82
2017-10-14T23:27:00.000Z,21.78
2017-10-14T23:37:00.000Z,21.73
2017-10-14T23:47:00.000Z,21.69
2017-10-14T23:57:00.000Z,21.66
